createdAt,value
2022-11-02T00:00:37.477Z,12.88
2022-11-02T00:03:06.784Z,12.35
2022-11-02T00:05:36.194Z,11.75
2022-11-02T00:08:05.800Z,12.95
2022-11-02T00:10:35.238Z,11.65
2022-11-02T00:13:06.066Z,12.30
2022-11-02T00:15:37.269Z,11.60
2022-11-02T00:18:09.751Z,12.48
2022-11-02T00:20:39.659Z,12.52
2022-11-02T00:23:10.911Z,12.48
2022-11-02T00:25:42.468Z,12.30
2022-11-02T00:28:12.792Z,12.23
2022-11-02T00:30:41.934Z,13.07
2022-11-02T00:33:11.093Z,12.60
2022-11-02T00:35:40.780Z,12.63
2022-11-02T00:38:09.875Z,12.82
2022-11-02T00:40:38.814Z,10.93
2022-11-02T00:43:08.386Z,12.60
2022-11-02T00:45:41.302Z,12.77
2022-11-02T00:48:10.003Z,12.60
2022-11-02T00:50:39.085Z,12.82
2022-11-02T00:53:07.937Z,12.00
2022-11-02T00:55:37.020Z,13.45
2022-11-02T00:58:06.428Z,13.18
2022-11-02T01:00:35.438Z,12.75
2022-11-02T01:03:06.456Z,12.63
2022-11-02T01:05:35.459Z,14.07
2022-11-02T01:08:05.121Z,12.57
2022-11-02T01:10:34.978Z,13.70
2022-11-02T01:13:03.881Z,12.82
2022-11-02T01:15:33.737Z,12.85
2022-11-02T01:18:03.074Z,13.15
2022-11-02T01:20:33.762Z,13.20
2022-11-02T01:23:02.726Z,13.63
2022-11-02T01:25:31.586Z,14.00
2022-11-02T01:28:00.516Z,13.07
2022-11-02T01:30:29.443Z,13.82
2022-11-02T01:32:58.357Z,13.98
2022-11-02T01:35:28.611Z,13.23
2022-11-02T01:37:58.808Z,12.40
2022-11-02T01:40:27.662Z,13.48
2022-11-02T01:42:57.342Z,13.45
2022-11-02T01:45:26.215Z,13.10
2022-11-02T01:47:56.077Z,14.18
2022-11-02T01:50:28.649Z,14.75
2022-11-02T01:53:01.073Z,13.48
2022-11-02T01:55:33.962Z,13.48
2022-11-02T01:58:07.807Z,14.10
2022-11-02T02:00:38.816Z,14.20
2022-11-02T02:03:10.709Z,13.20
2022-11-02T02:05:43.722Z,13.77
2022-11-02T02:08:18.780Z,14.00
2022-11-02T02:13:19.442Z,13.95
2022-11-02T02:15:57.051Z,13.98
2022-11-02T02:18:34.164Z,14.15
2022-11-02T02:21:21.264Z,13.45
2022-11-02T02:24:22.058Z,13.45
2022-11-02T02:27:10.819Z,13.98
2022-11-02T02:29:53.653Z,14.35
2022-11-02T02:32:29.951Z,13.95
2022-11-02T02:35:08.828Z,14.55
2022-11-02T02:37:45.214Z,14.63
2022-11-02T02:40:18.787Z,13.57
2022-11-02T02:45:27.321Z,13.10
2022-11-02T02:48:02.358Z,14.07
2022-11-02T02:50:38.737Z,13.75
2022-11-02T02:53:09.661Z,13.35
2022-11-02T02:55:45.046Z,14.63
2022-11-02T02:58:19.840Z,13.57
2022-11-02T03:00:53.267Z,13.57
2022-11-02T03:03:27.375Z,12.65
2022-11-02T03:06:06.072Z,14.35
2022-11-02T03:08:39.709Z,14.80
2022-11-02T03:11:14.632Z,13.93
2022-11-02T03:14:00.173Z,13.65
2022-11-02T03:16:44.004Z,12.90
2022-11-02T03:19:24.857Z,14.00
2022-11-02T03:22:02.121Z,15.32
2022-11-02T03:24:37.346Z,12.93
2022-11-02T03:27:17.473Z,14.30
2022-11-02T03:29:54.777Z,12.32
2022-11-02T03:32:32.922Z,13.05
2022-11-02T03:35:06.907Z,12.88
2022-11-02T03:37:40.591Z,13.27
2022-11-02T03:40:17.442Z,12.65
2022-11-02T03:42:48.380Z,13.75
2022-11-02T03:45:20.439Z,14.73
2022-11-02T03:47:56.044Z,13.55
2022-11-02T03:50:27.828Z,11.88
2022-11-02T03:53:00.377Z,13.40
2022-11-02T03:55:34.593Z,13.63
2022-11-02T03:58:04.463Z,12.98
2022-11-02T04:00:36.216Z,14.65
2022-11-02T04:03:13.447Z,14.63
2022-11-02T04:05:46.264Z,13.93
2022-11-02T04:08:35.465Z,14.85
2022-11-02T04:11:25.788Z,13.85
2022-11-02T04:14:16.398Z,12.23
2022-11-02T04:17:11.057Z,12.18
2022-11-02T04:22:35.953Z,13.20
2022-11-02T04:25:19.507Z,14.88
2022-11-02T04:27:57.613Z,14.63
2022-11-02T04:30:32.282Z,13.70
2022-11-02T04:33:20.389Z,14.30
2022-11-02T04:36:00.863Z,18.67
2022-11-02T04:38:41.810Z,15.43
2022-11-02T04:41:45.568Z,18.73
2022-11-02T04:44:18.581Z,12.52
2022-11-02T04:46:58.814Z,13.13
2022-11-02T04:49:31.776Z,13.32
2022-11-02T04:52:02.840Z,14.68
2022-11-02T04:54:34.866Z,14.30
2022-11-02T04:57:06.768Z,14.32
2022-11-02T04:59:35.956Z,14.95
2022-11-02T05:02:05.488Z,14.85
2022-11-02T05:04:35.613Z,13.98
2022-11-02T05:07:07.803Z,14.77
2022-11-02T05:09:38.745Z,15.03
2022-11-02T05:12:08.303Z,14.15
2022-11-02T05:14:37.398Z,14.38
2022-11-02T05:17:06.489Z,14.48
2022-11-02T05:19:37.691Z,14.68
2022-11-02T05:22:09.735Z,15.77
2022-11-02T05:24:38.615Z,14.07
2022-11-02T05:27:11.849Z,13.63
2022-11-02T05:29:41.636Z,14.20
2022-11-02T05:32:11.175Z,16.15
2022-11-02T05:34:42.102Z,16.08
2022-11-02T05:37:14.483Z,14.15
2022-11-02T05:39:47.860Z,15.32
2022-11-02T05:42:20.759Z,15.00
2022-11-02T05:44:50.131Z,14.18
2022-11-02T05:47:19.233Z,14.43
2022-11-02T05:49:49.989Z,14.75
2022-11-02T05:54:54.704Z,14.70
2022-11-02T05:57:23.797Z,15.15
2022-11-02T05:59:52.788Z,15.10
2022-11-02T06:02:23.405Z,15.82
2022-11-02T06:04:54.492Z,15.15
2022-11-02T06:07:27.770Z,16.27
2022-11-02T06:09:57.020Z,16.92
2022-11-02T06:12:25.902Z,16.30
2022-11-02T06:14:55.241Z,16.08
2022-11-02T06:17:24.439Z,16.63
2022-11-02T06:19:53.348Z,16.15
2022-11-02T06:22:22.703Z,14.77
2022-11-02T06:24:53.438Z,15.18
2022-11-02T06:27:22.670Z,15.60
2022-11-02T06:29:52.108Z,17.15
2022-11-02T06:32:21.098Z,15.00
2022-11-02T06:34:50.237Z,15.23
2022-11-02T06:37:19.163Z,16.15
2022-11-02T06:39:48.268Z,16.42
2022-11-02T06:42:18.493Z,17.67
2022-11-02T06:44:47.482Z,17.48
2022-11-02T06:47:16.577Z,16.33
2022-11-02T06:49:45.675Z,19.58
2022-11-02T06:52:15.058Z,17.35
2022-11-02T06:54:44.116Z,17.20
2022-11-02T06:57:13.045Z,17.88
2022-11-02T06:59:43.214Z,18.48
2022-11-02T07:02:12.293Z,18.23
2022-11-02T07:04:44.264Z,18.42
2022-11-02T07:07:13.311Z,17.33
2022-11-02T07:09:42.547Z,18.25
2022-11-02T07:12:11.632Z,17.33
2022-11-02T07:14:40.907Z,16.92
2022-11-02T07:17:11.648Z,16.40
2022-11-02T07:19:40.564Z,17.25
2022-11-02T07:22:09.517Z,15.73
2022-11-02T07:24:40.730Z,15.10
2022-11-02T07:27:09.688Z,14.90
2022-11-02T07:29:38.567Z,16.10
2022-11-02T07:32:09.088Z,14.70
2022-11-02T07:34:39.409Z,14.48
2022-11-02T07:37:08.293Z,15.00
2022-11-02T07:39:37.239Z,13.98
2022-11-02T07:42:07.261Z,15.10
2022-11-02T07:44:41.977Z,15.13
2022-11-02T07:47:11.361Z,14.98
2022-11-02T07:49:42.314Z,14.82
2022-11-02T07:52:11.957Z,16.02
2022-11-02T07:54:44.569Z,16.38
2022-11-02T07:57:14.107Z,15.77
2022-11-02T07:59:43.791Z,15.45
2022-11-02T08:02:14.865Z,15.95
2022-11-02T08:04:46.503Z,15.82
2022-11-02T08:07:16.310Z,15.98
2022-11-02T08:09:46.013Z,17.98
2022-11-02T08:12:15.521Z,16.48
2022-11-02T08:14:44.720Z,16.58
2022-11-02T08:17:13.974Z,16.75
2022-11-02T08:19:43.337Z,18.48
2022-11-02T08:22:13.948Z,16.63
2022-11-02T08:24:43.333Z,17.88
2022-11-02T08:27:12.611Z,17.33
2022-11-02T08:29:44.377Z,17.63
2022-11-02T08:32:14.402Z,16.58
2022-11-02T08:34:45.670Z,17.25
2022-11-02T08:37:16.285Z,17.80
2022-11-02T08:39:45.315Z,16.73
2022-11-02T08:42:16.576Z,16.17
2022-11-02T08:44:45.664Z,16.60
2022-11-02T08:47:15.984Z,16.02
2022-11-02T08:49:47.095Z,15.75
2022-11-02T08:52:17.718Z,14.77
2022-11-02T08:54:47.028Z,14.70
2022-11-02T08:57:16.463Z,16.10
2022-11-02T08:59:45.637Z,16.02
2022-11-02T09:02:14.812Z,14.63
2022-11-02T09:04:44.228Z,14.25
2022-11-02T09:07:17.136Z,14.43
2022-11-02T09:09:46.293Z,14.30
2022-11-02T09:12:15.967Z,13.95
2022-11-02T09:14:45.351Z,13.75
2022-11-02T09:17:14.587Z,15.32
2022-11-02T09:19:44.026Z,14.07
2022-11-02T09:22:13.230Z,15.05
2022-11-02T09:24:43.593Z,15.35
2022-11-02T09:27:12.538Z,14.50
2022-11-02T09:29:41.552Z,16.05
2022-11-02T09:32:11.041Z,14.93
2022-11-02T09:34:40.366Z,15.02
2022-11-02T09:37:09.337Z,14.20
2022-11-02T09:39:38.745Z,15.50
2022-11-02T09:42:20.385Z,15.00
2022-11-02T09:44:52.516Z,15.55
2022-11-02T09:50:18.927Z,15.68
2022-11-02T09:52:58.811Z,14.93
2022-11-02T09:55:31.907Z,15.05
2022-11-02T09:58:07.486Z,14.63
2022-11-02T10:00:42.032Z,15.32
2022-11-02T10:03:21.920Z,16.02
2022-11-02T10:05:58.424Z,15.18
2022-11-02T10:08:39.546Z,14.35
2022-11-02T10:11:20.542Z,13.93
2022-11-02T10:13:57.059Z,14.80
2022-11-02T10:16:38.310Z,14.93
2022-11-02T10:19:14.872Z,15.95
2022-11-02T10:21:48.273Z,15.13
2022-11-02T10:24:25.825Z,13.50
2022-11-02T10:26:58.322Z,15.27
2022-11-02T10:29:41.442Z,14.60
2022-11-02T10:32:12.710Z,15.88
2022-11-02T10:34:42.942Z,15.27
2022-11-02T10:38:14.998Z,15.30
2022-11-02T10:41:08.799Z,14.82
2022-11-02T10:43:54.362Z,13.70
2022-11-02T10:46:42.527Z,14.48
2022-11-02T10:49:18.278Z,13.93
2022-11-02T10:51:47.579Z,14.55
2022-11-02T10:54:21.663Z,14.13
2022-11-02T10:57:09.211Z,14.70
2022-11-02T10:59:39.201Z,14.82
2022-11-02T11:02:17.099Z,15.27
2022-11-02T11:04:47.433Z,14.25
2022-11-02T11:07:30.436Z,14.85
2022-11-02T11:10:00.047Z,16.10
2022-11-02T11:12:34.716Z,15.50
2022-11-02T11:20:49.698Z,14.13
2022-11-02T11:23:21.740Z,14.32
2022-11-02T11:26:00.200Z,14.10
2022-11-02T11:28:32.084Z,14.27
2022-11-02T11:31:09.045Z,13.10
2022-11-02T11:33:49.639Z,14.20
2022-11-02T11:36:28.403Z,13.45
2022-11-02T11:39:01.463Z,14.27
2022-11-02T11:41:32.866Z,13.98
2022-11-02T11:44:03.733Z,14.07
2022-11-02T11:46:44.031Z,14.07
2022-11-02T11:49:36.033Z,12.27
2022-11-02T11:52:20.541Z,12.98
2022-11-02T11:55:00.969Z,13.00
2022-11-02T11:57:33.003Z,13.20
2022-11-02T12:00:05.275Z,13.63
2022-11-02T12:02:43.843Z,13.27
2022-11-02T12:05:16.707Z,11.85
2022-11-02T12:08:16.219Z,11.80
2022-11-02T12:11:03.836Z,12.23
2022-11-02T12:13:51.956Z,11.98
2022-11-02T12:16:31.167Z,12.80
2022-11-02T12:19:23.749Z,12.73
2022-11-02T12:22:04.074Z,12.35
2022-11-02T12:25:05.558Z,13.13
2022-11-02T12:27:43.677Z,12.95
2022-11-02T12:30:16.644Z,15.02
2022-11-02T12:32:59.885Z,13.95
2022-11-02T12:36:05.341Z,13.98
2022-11-02T12:38:52.943Z,13.50
2022-11-02T12:42:09.993Z,12.98
2022-11-02T12:44:50.205Z,15.07
2022-11-02T12:47:30.174Z,15.27
2022-11-02T12:50:10.087Z,15.65
2022-11-02T12:52:53.657Z,16.25
2022-11-02T12:55:38.177Z,15.73
2022-11-02T12:58:19.580Z,14.73
2022-11-02T13:00:57.028Z,16.33
2022-11-02T13:03:37.309Z,14.57
2022-11-02T13:06:14.531Z,13.73
2022-11-02T13:08:50.293Z,14.57
2022-11-02T13:11:26.168Z,14.48
2022-11-02T13:13:58.970Z,15.60
2022-11-02T13:16:40.862Z,15.07
2022-11-02T13:19:19.487Z,17.50
2022-11-02T13:21:54.110Z,17.88
2022-11-02T13:24:30.662Z,17.38
2022-11-02T13:29:59.287Z,16.00
2022-11-02T13:32:34.362Z,15.63
2022-11-02T13:35:14.169Z,15.02
2022-11-02T13:37:48.104Z,16.02
2022-11-02T13:40:23.069Z,15.02
2022-11-02T13:43:30.189Z,16.05
2022-11-02T13:46:13.075Z,15.98
2022-11-02T13:48:52.632Z,14.27
2022-11-02T13:51:29.132Z,15.25
2022-11-02T13:54:04.968Z,15.23
2022-11-02T13:56:37.676Z,14.38
2022-11-02T13:59:09.311Z,15.93
2022-11-02T14:01:42.607Z,15.50
2022-11-02T14:04:14.741Z,16.00
2022-11-02T14:06:51.214Z,15.10
2022-11-02T14:09:32.110Z,13.80
2022-11-02T14:12:27.374Z,14.68
2022-11-02T14:16:03.726Z,14.75
2022-11-02T14:18:34.664Z,14.75
2022-11-02T14:21:36.693Z,14.13
2022-11-02T14:24:48.383Z,14.07
2022-11-02T14:27:31.150Z,14.35
2022-11-02T14:30:00.682Z,14.85
2022-11-02T14:32:41.735Z,15.35
2022-11-02T14:35:46.985Z,15.70
2022-11-02T14:38:40.003Z,13.85
2022-11-02T14:41:32.199Z,14.68
2022-11-02T14:44:23.889Z,15.13
2022-11-02T14:46:57.677Z,14.77
2022-11-02T14:49:29.806Z,14.05
2022-11-02T14:52:04.676Z,13.40
2022-11-02T14:54:37.733Z,14.75
2022-11-02T14:57:16.495Z,14.77
2022-11-02T14:59:49.864Z,13.98
2022-11-02T15:02:24.818Z,13.35
2022-11-02T15:04:56.330Z,13.07
2022-11-02T15:07:34.872Z,14.93
2022-11-02T15:10:07.207Z,13.75
2022-11-02T15:12:41.280Z,14.15
2022-11-02T15:15:32.970Z,14.40
2022-11-02T15:18:33.706Z,13.95
2022-11-02T15:21:25.524Z,14.65
2022-11-02T15:24:15.505Z,16.55
2022-11-02T15:26:51.014Z,16.05
2022-11-02T15:29:36.556Z,15.40
2022-11-02T15:32:10.047Z,17.70
2022-11-02T15:34:43.830Z,17.33
2022-11-02T15:37:18.428Z,16.65
2022-11-02T15:39:53.548Z,15.20
2022-11-02T15:42:33.532Z,16.23
2022-11-02T15:45:49.430Z,15.95
2022-11-02T15:48:37.006Z,16.42
2022-11-02T15:51:20.661Z,16.42
2022-11-02T15:54:13.558Z,18.35
2022-11-02T15:57:02.758Z,18.73
2022-11-02T15:59:55.210Z,18.35
2022-11-02T16:02:27.977Z,17.52
2022-11-02T16:05:00.194Z,18.45
2022-11-02T16:07:38.287Z,19.27
2022-11-02T16:10:25.663Z,18.58
2022-11-02T16:13:00.444Z,18.25
2022-11-02T16:15:30.580Z,18.20
2022-11-02T16:17:59.751Z,16.98
2022-11-02T16:20:31.052Z,14.30
2022-11-02T16:23:02.092Z,14.02
2022-11-02T16:25:39.911Z,15.05
2022-11-02T16:28:20.396Z,13.30
2022-11-02T16:31:12.737Z,13.18
2022-11-02T16:33:49.573Z,12.38
2022-11-02T16:36:21.190Z,13.48
2022-11-02T16:38:59.591Z,11.80
2022-11-02T16:41:31.281Z,10.90
2022-11-02T16:44:03.808Z,10.40
2022-11-02T16:46:43.351Z,10.67
2022-11-02T16:49:18.721Z,9.88
2022-11-02T16:51:53.178Z,9.70
2022-11-02T16:54:41.292Z,9.77
2022-11-02T16:57:19.788Z,9.40
2022-11-02T16:59:54.810Z,8.35
2022-11-02T17:02:36.212Z,9.15
2022-11-02T17:05:07.761Z,8.55
2022-11-02T17:07:42.413Z,8.52
2022-11-02T17:10:22.224Z,8.15
2022-11-02T17:12:51.586Z,8.55
2022-11-02T17:15:25.180Z,8.77
2022-11-02T17:20:46.207Z,8.02
2022-11-02T17:23:33.894Z,8.18
2022-11-02T17:26:42.165Z,7.72
2022-11-02T17:29:32.289Z,8.82
2022-11-02T17:32:05.225Z,8.32
2022-11-02T17:34:35.781Z,8.60
2022-11-02T17:37:06.791Z,7.47
2022-11-02T17:39:36.244Z,7.85
2022-11-02T17:42:23.137Z,9.43
2022-11-02T17:44:52.650Z,8.57
2022-11-02T17:47:23.468Z,9.32
2022-11-02T17:49:52.684Z,8.13
2022-11-02T17:52:21.833Z,7.90
2022-11-02T17:54:51.285Z,9.23
2022-11-02T17:57:21.170Z,8.90
2022-11-02T17:59:51.746Z,8.63
2022-11-02T18:02:22.472Z,8.57
2022-11-02T18:04:51.709Z,7.68
2022-11-02T18:07:21.026Z,7.88
2022-11-02T18:09:49.953Z,7.70
2022-11-02T18:12:21.975Z,9.23
2022-11-02T18:14:51.766Z,8.57
2022-11-02T18:17:27.149Z,8.55
2022-11-02T18:19:58.045Z,8.18
2022-11-02T18:22:28.023Z,7.90
2022-11-02T18:25:04.779Z,7.57
2022-11-02T18:27:33.864Z,7.55
2022-11-02T18:30:03.241Z,8.10
2022-11-02T18:32:56.190Z,7.30
2022-11-02T18:35:26.561Z,8.63
2022-11-02T18:38:01.715Z,8.10
2022-11-02T18:40:42.968Z,9.32
2022-11-02T18:43:16.750Z,10.00
2022-11-02T18:48:17.145Z,10.13
2022-11-02T18:50:46.580Z,9.27
2022-11-02T18:56:31.957Z,9.10
2022-11-02T18:59:01.459Z,9.55
2022-11-02T19:01:37.979Z,9.07
2022-11-02T19:04:16.948Z,10.68
2022-11-02T19:07:13.838Z,11.90
2022-11-02T19:09:46.896Z,10.13
2022-11-02T19:12:20.310Z,10.85
2022-11-02T19:14:51.674Z,10.30
2022-11-02T19:17:20.793Z,11.07
2022-11-02T19:19:54.967Z,11.15
2022-11-02T19:22:28.861Z,10.48
2022-11-02T19:24:58.225Z,10.95
2022-11-02T19:27:27.756Z,11.20
2022-11-02T19:29:56.937Z,11.35
2022-11-02T19:32:29.165Z,10.82
2022-11-02T19:35:00.647Z,10.52
2022-11-02T19:37:34.302Z,10.93
2022-11-02T19:40:04.426Z,10.95
2022-11-02T19:42:33.661Z,11.23
2022-11-02T19:45:04.405Z,11.02
2022-11-02T19:47:34.068Z,10.27
2022-11-02T19:50:04.465Z,10.05
2022-11-02T19:52:41.495Z,10.48
2022-11-02T19:55:12.980Z,10.00
2022-11-02T19:57:43.346Z,11.07
2022-11-02T20:00:14.853Z,10.30
2022-11-02T20:02:48.838Z,10.25
2022-11-02T20:05:22.079Z,9.75
2022-11-02T20:07:55.244Z,9.85
2022-11-02T20:10:32.731Z,11.13
2022-11-02T20:13:07.363Z,10.32
2022-11-02T20:15:45.013Z,9.60
2022-11-02T20:18:19.448Z,9.07
2022-11-02T20:20:52.578Z,9.82
2022-11-02T20:23:45.845Z,10.13
2022-11-02T20:26:17.325Z,9.47
2022-11-02T20:28:53.155Z,10.05
2022-11-02T20:31:24.130Z,9.40
2022-11-02T20:33:57.116Z,8.82
2022-11-02T20:36:30.549Z,8.82
2022-11-02T20:39:04.674Z,8.48
2022-11-02T20:41:36.079Z,8.43
2022-11-02T20:46:41.451Z,9.20
2022-11-02T20:49:22.324Z,8.95
2022-11-02T20:52:03.836Z,8.75
2022-11-02T20:54:33.289Z,8.35
2022-11-02T20:57:08.695Z,9.20
2022-11-02T20:59:38.159Z,9.00
2022-11-02T21:02:08.486Z,8.48
2022-11-02T21:04:59.612Z,7.80
2022-11-02T21:07:30.138Z,8.40
2022-11-02T21:10:01.961Z,8.82
2022-11-02T21:12:50.550Z,8.77
2022-11-02T21:15:21.859Z,9.10
2022-11-02T21:17:53.409Z,8.43
2022-11-02T21:20:34.092Z,10.18
2022-11-02T21:23:06.475Z,7.82
2022-11-02T21:25:36.569Z,7.80
2022-11-02T21:28:06.101Z,8.43
2022-11-02T21:30:37.157Z,8.23
2022-11-02T21:33:15.835Z,8.98
2022-11-02T21:35:52.633Z,8.07
2022-11-02T21:38:26.982Z,7.47
2022-11-02T21:41:00.138Z,7.57
2022-11-02T21:43:29.385Z,8.00
2022-11-02T21:45:59.910Z,8.10
2022-11-02T21:48:39.228Z,8.95
2022-11-02T21:51:12.178Z,7.88
2022-11-02T21:53:44.032Z,8.88
2022-11-02T21:56:15.888Z,8.07
2022-11-02T21:58:46.511Z,8.15
2022-11-02T22:01:38.506Z,7.32
2022-11-02T22:04:08.311Z,8.73
2022-11-02T22:06:37.969Z,8.45
2022-11-02T22:09:09.775Z,8.00
2022-11-02T22:11:38.723Z,8.50
2022-11-02T22:14:08.122Z,8.32
2022-11-02T22:16:38.901Z,8.20
2022-11-02T22:19:09.565Z,8.98
2022-11-02T22:21:40.991Z,7.78
2022-11-02T22:24:13.461Z,8.60
2022-11-02T22:26:42.525Z,8.20
2022-11-02T22:29:12.256Z,8.43
2022-11-02T22:31:42.002Z,8.85
2022-11-02T22:34:13.343Z,9.38
2022-11-02T22:36:44.545Z,9.05
2022-11-02T22:39:15.928Z,9.60
2022-11-02T22:41:46.681Z,9.68
2022-11-02T22:44:17.514Z,8.50
2022-11-02T22:46:48.926Z,10.02
2022-11-02T22:49:19.949Z,9.88
2022-11-02T22:51:51.351Z,8.95
2022-11-02T22:54:21.826Z,9.68
2022-11-02T22:56:50.923Z,8.90
2022-11-02T22:59:20.951Z,9.15
2022-11-02T23:01:51.410Z,10.15
2022-11-02T23:04:20.746Z,10.27
2022-11-02T23:06:49.633Z,9.88
2022-11-02T23:09:18.546Z,9.93
2022-11-02T23:11:47.797Z,9.35
2022-11-02T23:14:21.265Z,10.00
2022-11-02T23:16:50.172Z,10.77
2022-11-02T23:19:30.993Z,9.77
2022-11-02T23:22:19.659Z,9.27
2022-11-02T23:25:07.998Z,10.23
2022-11-02T23:27:55.673Z,10.05
2022-11-02T23:30:42.317Z,10.38
2022-11-02T23:33:11.627Z,10.23
2022-11-02T23:35:58.258Z,10.52
2022-11-02T23:38:48.448Z,9.43
2022-11-02T23:41:18.244Z,10.02
2022-11-02T23:43:48.915Z,9.80
2022-11-02T23:46:18.913Z,10.43
2022-11-02T23:48:51.121Z,10.65
2022-11-02T23:51:40.537Z,10.05
2022-11-02T23:54:27.284Z,11.70
2022-11-02T23:56:56.681Z,10.05
2022-11-02T23:59:27.362Z,10.23
